createdAt,value
2023-04-07T00:00:38.146Z,15.90
2023-04-07T00:03:07.887Z,15.90
2023-04-07T00:05:36.985Z,15.91
2023-04-07T00:08:05.222Z,15.86
2023-04-07T00:10:33.248Z,15.79
2023-04-07T00:13:02.242Z,15.76
2023-04-07T00:15:31.043Z,15.73
2023-04-07T00:17:59.167Z,15.73
2023-04-07T00:20:27.566Z,15.79
2023-04-07T00:22:55.796Z,15.85
2023-04-07T00:25:24.543Z,15.88
2023-04-07T00:27:53.292Z,15.90
2023-04-07T00:30:27.310Z,15.90
2023-04-07T00:32:55.678Z,15.91
2023-04-07T00:35:23.884Z,15.91
2023-04-07T00:37:52.520Z,15.89
2023-04-07T00:40:21.115Z,15.86
2023-04-07T00:42:49.414Z,15.82
2023-04-07T00:45:17.822Z,15.81
2023-04-07T00:47:46.246Z,15.81
2023-04-07T00:50:14.956Z,15.84
2023-04-07T00:52:43.336Z,15.88
2023-04-07T00:55:11.474Z,15.87
2023-04-07T00:57:39.578Z,15.85
2023-04-07T01:00:11.037Z,15.83
2023-04-07T01:03:00.491Z,15.79
2023-04-07T01:05:28.998Z,15.76
2023-04-07T01:08:06.345Z,15.71
2023-04-07T01:10:56.901Z,15.63
2023-04-07T01:13:36.738Z,15.61
2023-04-07T01:16:42.884Z,15.69
2023-04-07T01:19:43.062Z,15.72
2023-04-07T01:22:15.142Z,15.59
2023-04-07T01:25:06.658Z,15.40
2023-04-07T01:28:09.013Z,15.22
2023-04-07T01:30:39.918Z,15.04
2023-04-07T01:33:08.198Z,14.95
2023-04-07T01:35:36.395Z,14.90
2023-04-07T01:38:04.970Z,14.91
2023-04-07T01:40:34.256Z,14.94
2023-04-07T01:43:02.306Z,14.79
2023-04-07T01:45:30.944Z,14.72
2023-04-07T01:47:59.132Z,14.75
2023-04-07T01:50:27.367Z,14.81
2023-04-07T01:52:55.797Z,14.83
2023-04-07T01:55:23.940Z,14.81
2023-04-07T01:58:06.383Z,14.76
2023-04-07T02:00:36.314Z,14.71
2023-04-07T02:03:36.756Z,14.78
2023-04-07T02:06:08.160Z,14.89
2023-04-07T02:08:39.465Z,14.94
2023-04-07T02:11:08.489Z,14.97
2023-04-07T02:13:39.018Z,15.05
2023-04-07T02:16:10.047Z,15.14
2023-04-07T02:18:38.974Z,15.22
2023-04-07T02:21:08.966Z,15.23
2023-04-07T02:23:38.528Z,15.16
2023-04-07T02:26:07.895Z,15.08
2023-04-07T02:28:36.360Z,15.00
2023-04-07T02:31:04.406Z,14.98
2023-04-07T02:33:35.885Z,14.94
2023-04-07T02:36:04.171Z,14.86
2023-04-07T02:38:32.501Z,14.81
2023-04-07T02:41:00.548Z,14.79
2023-04-07T02:43:31.764Z,14.77
2023-04-07T02:45:59.729Z,14.75
2023-04-07T02:48:29.650Z,14.72
2023-04-07T02:50:59.093Z,14.69
2023-04-07T02:53:33.548Z,14.63
2023-04-07T02:56:01.809Z,14.67
2023-04-07T02:58:30.236Z,14.76
2023-04-07T03:00:58.437Z,14.82
2023-04-07T03:03:32.231Z,14.86
2023-04-07T03:06:27.248Z,14.94
2023-04-07T03:09:17.137Z,14.99
2023-04-07T03:11:45.374Z,14.97
2023-04-07T03:14:13.640Z,14.96
2023-04-07T03:16:52.521Z,15.00
2023-04-07T03:19:22.945Z,15.04
2023-04-07T03:21:51.797Z,15.12
2023-04-07T03:24:21.880Z,15.20
2023-04-07T03:26:51.564Z,15.31
2023-04-07T03:29:24.536Z,15.38
2023-04-07T03:31:53.120Z,15.42
2023-04-07T03:34:23.476Z,15.45
2023-04-07T03:36:51.719Z,15.46
2023-04-07T03:39:20.056Z,15.47
2023-04-07T03:41:48.128Z,15.49
2023-04-07T03:44:16.345Z,15.48
2023-04-07T03:46:45.806Z,15.47
2023-04-07T03:49:14.781Z,15.46
2023-04-07T03:51:43.950Z,15.45
2023-04-07T03:54:16.308Z,15.45
2023-04-07T03:56:47.220Z,15.43
2023-04-07T03:59:23.217Z,15.42
2023-04-07T04:02:00.588Z,15.43
2023-04-07T04:04:29.779Z,15.47
2023-04-07T04:06:57.963Z,15.50
2023-04-07T04:10:37.824Z,15.50
2023-04-07T04:13:25.134Z,15.48
2023-04-07T04:15:53.532Z,15.48
2023-04-07T04:18:21.643Z,15.51
2023-04-07T04:20:55.614Z,15.55
2023-04-07T04:23:24.576Z,15.59
2023-04-07T04:25:54.178Z,15.64
2023-04-07T04:28:22.710Z,15.67
2023-04-07T04:30:51.861Z,15.71
2023-04-07T04:33:20.507Z,15.75
2023-04-07T04:36:42.936Z,14.69
2023-04-07T04:39:11.540Z,15.68
2023-04-07T04:41:41.312Z,15.84
2023-04-07T04:44:11.080Z,15.93
2023-04-07T04:46:44.337Z,15.99
2023-04-07T04:49:12.919Z,16.01
2023-04-07T04:51:42.138Z,16.03
2023-04-07T04:54:16.683Z,16.06
2023-04-07T04:56:45.353Z,16.08
2023-04-07T04:59:13.365Z,16.17
2023-04-07T05:01:47.638Z,16.42
2023-04-07T05:04:18.061Z,16.86
2023-04-07T05:06:51.782Z,17.46
2023-04-07T05:09:22.258Z,18.05
2023-04-07T05:11:51.318Z,18.62
2023-04-07T05:14:19.772Z,19.20
2023-04-07T05:16:54.446Z,19.79
2023-04-07T05:19:24.979Z,20.30
2023-04-07T05:21:55.289Z,20.79
2023-04-07T05:24:27.449Z,21.27
2023-04-07T05:26:58.503Z,21.72
2023-04-07T05:29:27.448Z,22.04
2023-04-07T05:31:56.044Z,22.39
2023-04-07T05:34:24.643Z,22.72
2023-04-07T05:36:55.607Z,22.98
2023-04-07T05:39:24.030Z,23.22
2023-04-07T05:41:54.743Z,23.42
2023-04-07T05:44:25.547Z,23.60
2023-04-07T05:46:54.333Z,23.86
2023-04-07T05:49:27.877Z,24.16
2023-04-07T05:52:06.298Z,24.49
2023-04-07T05:54:37.301Z,24.79
2023-04-07T05:57:07.526Z,25.07
2023-04-07T05:59:36.891Z,25.41
2023-04-07T06:02:06.232Z,25.78
2023-04-07T06:04:35.549Z,26.17
2023-04-07T06:07:04.677Z,26.54
2023-04-07T06:09:33.117Z,26.83
2023-04-07T06:12:05.180Z,26.98
2023-04-07T06:14:33.407Z,26.97
2023-04-07T06:17:03.369Z,27.02
2023-04-07T06:19:33.227Z,26.94
2023-04-07T06:22:02.177Z,26.94
2023-04-07T06:24:30.624Z,26.99
2023-04-07T06:26:58.754Z,27.06
2023-04-07T06:29:27.213Z,27.00
2023-04-07T06:31:56.367Z,26.53
2023-04-07T06:34:24.598Z,26.24
2023-04-07T06:36:52.744Z,26.22
2023-04-07T06:39:21.526Z,25.77
2023-04-07T06:41:49.946Z,25.54
2023-04-07T06:44:18.630Z,25.39
2023-04-07T06:46:49.601Z,25.11
2023-04-07T06:49:23.682Z,24.86
2023-04-07T06:51:52.618Z,25.01
2023-04-07T06:54:21.552Z,25.21
2023-04-07T06:56:54.596Z,25.31
2023-04-07T06:59:23.026Z,25.46
2023-04-07T07:01:51.310Z,25.65
2023-04-07T07:04:19.743Z,25.77
2023-04-07T07:06:48.680Z,25.74
2023-04-07T07:09:17.095Z,25.70
2023-04-07T07:11:46.339Z,25.73
2023-04-07T07:14:15.960Z,25.86
2023-04-07T07:16:44.098Z,26.07
2023-04-07T07:19:17.300Z,26.33
2023-04-07T07:21:46.144Z,26.53
2023-04-07T07:24:14.630Z,26.70
2023-04-07T07:26:44.183Z,26.83
2023-04-07T07:29:13.115Z,26.89
2023-04-07T07:31:42.021Z,26.92
2023-04-07T07:34:10.086Z,26.90
2023-04-07T07:36:39.725Z,26.88
2023-04-07T07:39:07.967Z,26.82
2023-04-07T07:41:36.551Z,26.54
2023-04-07T07:44:04.708Z,26.19
2023-04-07T07:46:32.958Z,26.14
2023-04-07T07:49:01.342Z,26.13
2023-04-07T07:51:30.297Z,26.29
2023-04-07T07:53:58.381Z,26.50
2023-04-07T07:56:27.803Z,26.56
2023-04-07T07:58:58.119Z,26.47
2023-04-07T08:01:28.602Z,26.32
2023-04-07T08:03:57.477Z,26.17
2023-04-07T08:06:27.257Z,26.11
2023-04-07T08:08:56.055Z,26.03
2023-04-07T08:11:25.961Z,25.83
2023-04-07T08:13:54.505Z,25.63
2023-04-07T08:16:23.932Z,25.52
2023-04-07T08:18:52.014Z,25.49
2023-04-07T08:21:21.218Z,25.49
2023-04-07T08:23:49.529Z,25.48
2023-04-07T08:26:17.938Z,25.46
2023-04-07T08:28:51.949Z,25.47
2023-04-07T08:31:20.428Z,25.04
2023-04-07T08:33:48.861Z,24.29
2023-04-07T08:36:17.367Z,23.77
2023-04-07T08:38:45.483Z,23.41
2023-04-07T08:41:22.253Z,23.35
2023-04-07T08:43:50.919Z,23.50
2023-04-07T08:46:21.225Z,23.66
2023-04-07T08:48:51.358Z,23.85
2023-04-07T08:51:28.790Z,24.02
2023-04-07T08:54:12.006Z,24.19
2023-04-07T08:56:41.482Z,24.36
2023-04-07T08:59:11.624Z,24.52
2023-04-07T09:01:40.290Z,24.64
2023-04-07T09:04:10.462Z,24.68
2023-04-07T09:06:38.754Z,24.71
2023-04-07T09:09:07.070Z,24.79
2023-04-07T09:11:38.825Z,24.83
2023-04-07T09:14:08.013Z,24.80
2023-04-07T09:16:36.202Z,24.81
2023-04-07T09:19:04.321Z,24.84
2023-04-07T09:21:52.056Z,24.66
2023-04-07T09:24:29.822Z,24.35
2023-04-07T09:27:17.023Z,24.11
2023-04-07T09:29:47.607Z,23.92
2023-04-07T09:32:38.830Z,23.74
2023-04-07T09:35:08.013Z,23.52
2023-04-07T09:37:36.471Z,23.41
2023-04-07T09:40:05.532Z,23.51
2023-04-07T09:42:37.000Z,23.58
2023-04-07T09:45:05.941Z,23.50
2023-04-07T09:47:34.092Z,23.56
2023-04-07T09:50:07.272Z,23.72
2023-04-07T09:53:05.160Z,23.89
2023-04-07T09:55:33.995Z,24.02
2023-04-07T09:58:02.205Z,24.11
2023-04-07T10:00:32.229Z,24.18
2023-04-07T10:03:01.059Z,24.22
2023-04-07T10:05:29.419Z,24.23
2023-04-07T10:07:57.719Z,24.20
2023-04-07T10:10:27.464Z,24.07
2023-04-07T10:13:01.246Z,24.03
2023-04-07T10:15:29.351Z,24.00
2023-04-07T10:17:59.746Z,23.95
2023-04-07T10:20:28.344Z,23.84
2023-04-07T10:23:02.778Z,23.74
2023-04-07T10:25:31.639Z,23.69
2023-04-07T10:28:00.853Z,23.63
2023-04-07T10:30:31.844Z,23.71
2023-04-07T10:33:47.517Z,23.77
2023-04-07T10:36:17.271Z,23.83
2023-04-07T10:39:07.333Z,23.92
2023-04-07T10:41:40.573Z,24.03
2023-04-07T10:44:10.038Z,24.12
2023-04-07T10:46:45.354Z,24.17
2023-04-07T10:49:18.664Z,24.24
2023-04-07T10:52:12.511Z,24.34
2023-04-07T10:54:41.700Z,24.44
2023-04-07T10:57:12.164Z,24.52
2023-04-07T10:59:47.184Z,24.58
2023-04-07T11:02:15.530Z,24.59
2023-04-07T11:04:45.985Z,24.61
2023-04-07T11:07:14.644Z,24.66
2023-04-07T11:09:43.316Z,24.63
2023-04-07T11:12:24.421Z,24.56
2023-04-07T11:14:53.030Z,24.50
2023-04-07T11:17:25.025Z,24.62
2023-04-07T11:19:54.018Z,24.74
2023-04-07T11:22:30.038Z,24.84
2023-04-07T11:24:59.057Z,24.86
2023-04-07T11:27:28.719Z,24.62
2023-04-07T11:29:57.016Z,24.52
2023-04-07T11:32:29.736Z,24.56
2023-04-07T11:34:57.960Z,24.69
2023-04-07T11:37:29.185Z,24.80
2023-04-07T11:39:58.761Z,24.77
2023-04-07T11:42:36.393Z,24.65
2023-04-07T11:45:06.551Z,24.57
2023-04-07T11:47:37.937Z,24.60
2023-04-07T11:50:07.196Z,24.69
2023-04-07T11:52:47.972Z,24.80
2023-04-07T11:55:24.581Z,24.90
2023-04-07T11:57:52.851Z,25.01
2023-04-07T12:00:22.393Z,25.08
2023-04-07T12:02:51.636Z,25.11
2023-04-07T12:05:19.782Z,25.18
2023-04-07T12:07:55.635Z,25.24
2023-04-07T12:10:27.732Z,25.24
2023-04-07T12:12:58.102Z,25.24
2023-04-07T12:15:28.001Z,25.23
2023-04-07T12:17:56.276Z,24.96
2023-04-07T12:20:27.430Z,24.78
2023-04-07T12:23:00.118Z,24.84
2023-04-07T12:25:28.339Z,24.94
2023-04-07T12:28:02.355Z,25.06
2023-04-07T12:30:31.319Z,25.14
2023-04-07T12:32:59.704Z,25.15
2023-04-07T12:35:28.968Z,25.15
2023-04-07T12:37:58.234Z,25.13
2023-04-07T12:40:27.649Z,25.10
2023-04-07T12:42:58.496Z,25.10
2023-04-07T12:45:26.753Z,25.07
2023-04-07T12:47:55.886Z,25.02
2023-04-07T12:50:25.352Z,25.06
2023-04-07T12:52:54.723Z,25.14
2023-04-07T12:55:22.883Z,25.24
2023-04-07T12:57:51.211Z,25.34
2023-04-07T13:00:21.006Z,25.42
2023-04-07T13:02:50.902Z,25.45
2023-04-07T13:05:19.741Z,25.54
2023-04-07T13:07:50.058Z,25.65
2023-04-07T13:10:18.178Z,25.77
2023-04-07T13:12:48.556Z,25.75
2023-04-07T13:15:19.550Z,25.74
2023-04-07T13:17:47.841Z,25.80
2023-04-07T13:20:19.866Z,25.86
2023-04-07T13:22:59.260Z,25.91
2023-04-07T13:25:34.425Z,25.83
2023-04-07T13:28:02.543Z,25.81
2023-04-07T13:30:31.390Z,25.83
2023-04-07T13:33:00.513Z,25.89
2023-04-07T13:35:31.138Z,25.97
2023-04-07T13:37:59.611Z,26.05
2023-04-07T13:40:27.750Z,26.11
2023-04-07T13:42:57.602Z,26.14
2023-04-07T13:45:25.888Z,26.23
2023-04-07T13:47:56.808Z,26.38
2023-04-07T13:50:25.398Z,26.45
2023-04-07T13:52:54.181Z,26.48
2023-04-07T13:55:22.298Z,26.50
2023-04-07T13:57:51.006Z,26.49
2023-04-07T14:00:19.853Z,26.48
2023-04-07T14:03:08.514Z,26.50
2023-04-07T14:05:37.046Z,26.49
2023-04-07T14:08:06.031Z,26.32
2023-04-07T14:10:36.706Z,26.05
2023-04-07T14:13:05.139Z,25.85
2023-04-07T14:15:34.223Z,25.73
2023-04-07T14:18:02.901Z,25.65
2023-04-07T14:20:31.086Z,25.52
2023-04-07T14:22:59.528Z,25.27
2023-04-07T14:25:27.874Z,25.09
2023-04-07T14:27:58.746Z,25.00
2023-04-07T14:30:27.944Z,24.92
2023-04-07T14:32:57.128Z,24.82
2023-04-07T14:35:25.628Z,24.81
2023-04-07T14:37:55.637Z,24.87
2023-04-07T14:40:23.962Z,24.92
2023-04-07T14:45:22.718Z,25.02
2023-04-07T14:47:51.781Z,25.03
2023-04-07T14:50:20.238Z,25.06
2023-04-07T14:52:50.410Z,25.08
2023-04-07T14:55:18.667Z,24.94
2023-04-07T14:57:46.834Z,24.81
2023-04-07T15:00:15.826Z,24.95
2023-04-07T15:02:45.348Z,25.04
2023-04-07T15:05:13.648Z,24.86
2023-04-07T15:07:41.900Z,24.59
2023-04-07T15:10:10.544Z,24.56
2023-04-07T15:12:38.883Z,24.65
2023-04-07T15:15:09.254Z,24.71
2023-04-07T15:17:43.932Z,24.91
2023-04-07T15:20:13.680Z,24.95
2023-04-07T15:22:43.889Z,24.77
2023-04-07T15:25:12.496Z,24.75
2023-04-07T15:27:40.632Z,24.83
2023-04-07T15:30:09.570Z,24.73
2023-04-07T15:32:37.865Z,24.50
2023-04-07T15:35:07.108Z,24.29
2023-04-07T15:37:35.742Z,24.16
2023-04-07T15:40:04.545Z,24.01
2023-04-07T15:42:41.811Z,23.81
2023-04-07T15:45:11.136Z,23.54
2023-04-07T15:47:39.849Z,23.33
2023-04-07T15:50:09.090Z,23.26
2023-04-07T15:52:37.507Z,23.21
2023-04-07T15:55:06.157Z,23.18
2023-04-07T15:57:34.698Z,23.14
2023-04-07T16:00:03.845Z,23.06
2023-04-07T16:02:35.449Z,22.98
2023-04-07T16:05:03.852Z,23.02
2023-04-07T16:07:32.084Z,22.99
2023-04-07T16:10:12.540Z,22.96
2023-04-07T16:12:42.332Z,22.94
2023-04-07T16:15:11.757Z,22.96
2023-04-07T16:17:42.750Z,22.98
2023-04-07T16:20:14.444Z,22.92
2023-04-07T16:22:48.135Z,22.83
2023-04-07T16:25:16.446Z,22.74
2023-04-07T16:27:45.208Z,22.67
2023-04-07T16:30:14.415Z,22.70
2023-04-07T16:32:46.842Z,22.64
2023-04-07T16:35:15.178Z,22.52
2023-04-07T16:37:47.224Z,22.34
2023-04-07T16:40:16.363Z,22.23
2023-04-07T16:42:44.497Z,22.17
2023-04-07T16:45:13.467Z,22.16
2023-04-07T16:47:44.659Z,22.15
2023-04-07T16:50:12.936Z,22.14
2023-04-07T16:54:52.784Z,21.17
2023-04-07T16:57:21.124Z,22.27
2023-04-07T16:59:49.223Z,22.51
2023-04-07T17:02:17.512Z,22.63
2023-04-07T17:04:46.226Z,22.73
2023-04-07T17:07:14.244Z,22.80
2023-04-07T17:09:42.464Z,22.80
2023-04-07T17:12:10.830Z,22.77
2023-04-07T17:14:42.340Z,22.78
2023-04-07T17:17:10.776Z,22.77
2023-04-07T17:19:39.850Z,22.78
2023-04-07T17:22:07.888Z,22.75
2023-04-07T17:24:36.056Z,22.61
2023-04-07T17:27:04.160Z,22.33
2023-04-07T17:29:36.279Z,21.91
2023-04-07T17:32:06.693Z,21.60
2023-04-07T17:34:34.835Z,21.48
2023-04-07T17:37:07.684Z,21.54
2023-04-07T17:39:37.386Z,21.59
2023-04-07T17:42:05.732Z,21.61
2023-04-07T17:44:34.442Z,21.63
2023-04-07T17:47:02.616Z,21.65
2023-04-07T17:49:31.073Z,21.59
2023-04-07T17:51:59.600Z,21.51
2023-04-07T17:54:28.480Z,21.37
2023-04-07T17:56:58.315Z,21.20
2023-04-07T17:59:26.861Z,21.10
2023-04-07T18:01:58.139Z,21.09
2023-04-07T18:04:26.742Z,20.97
2023-04-07T18:06:55.926Z,20.87
2023-04-07T18:09:24.187Z,20.80
2023-04-07T18:11:56.536Z,20.84
2023-04-07T18:14:26.342Z,21.02
2023-04-07T18:16:55.714Z,21.43
2023-04-07T18:19:24.745Z,21.78
2023-04-07T18:21:53.478Z,21.92
2023-04-07T18:24:21.971Z,21.63
2023-04-07T18:26:50.115Z,21.21
2023-04-07T18:29:18.483Z,20.83
2023-04-07T18:31:47.323Z,20.54
2023-04-07T18:34:15.693Z,20.31
2023-04-07T18:36:54.267Z,20.18
2023-04-07T18:39:23.142Z,20.07
2023-04-07T18:41:51.807Z,19.97
2023-04-07T18:44:20.035Z,19.84
2023-04-07T18:46:48.344Z,19.70
2023-04-07T18:49:17.287Z,19.66
2023-04-07T18:51:47.219Z,19.72
2023-04-07T18:54:21.220Z,19.86
2023-04-07T18:56:49.480Z,19.99
2023-04-07T18:59:17.651Z,20.13
2023-04-07T19:01:47.202Z,20.26
2023-04-07T19:04:16.576Z,20.38
2023-04-07T19:06:44.851Z,20.48
2023-04-07T19:09:14.389Z,20.57
2023-04-07T19:11:42.900Z,20.67
2023-04-07T19:14:11.399Z,20.76
2023-04-07T19:16:39.758Z,20.77
2023-04-07T19:19:10.159Z,20.72
2023-04-07T19:21:40.478Z,20.70
2023-04-07T19:24:08.665Z,20.70
2023-04-07T19:26:38.043Z,20.69
2023-04-07T19:29:07.779Z,20.71
2023-04-07T19:31:37.204Z,20.72
2023-04-07T19:34:05.467Z,20.76
2023-04-07T19:36:35.108Z,20.74
2023-04-07T19:39:05.392Z,20.69
2023-04-07T19:41:34.207Z,20.67
2023-04-07T19:44:02.822Z,20.67
2023-04-07T19:46:36.571Z,20.67
2023-04-07T19:49:04.970Z,20.66
2023-04-07T19:51:33.421Z,20.62
2023-04-07T19:54:01.599Z,20.58
2023-04-07T19:56:30.075Z,20.55
2023-04-07T19:58:58.098Z,20.52
2023-04-07T20:01:26.483Z,20.48
2023-04-07T20:03:54.627Z,20.42
2023-04-07T20:06:26.708Z,20.37
2023-04-07T20:08:55.774Z,20.35
2023-04-07T20:11:23.942Z,20.34
2023-04-07T20:13:56.098Z,20.32
2023-04-07T20:16:24.638Z,20.30
2023-04-07T20:18:52.932Z,20.34
2023-04-07T20:21:20.985Z,20.36
2023-04-07T20:23:49.273Z,20.38
2023-04-07T20:26:17.433Z,20.39
2023-04-07T20:28:46.509Z,20.44
2023-04-07T20:31:14.908Z,20.54
2023-04-07T20:33:43.068Z,20.65
2023-04-07T20:36:11.313Z,20.76
2023-04-07T20:38:43.925Z,20.85
2023-04-07T20:41:14.234Z,20.92
2023-04-07T20:43:42.603Z,20.95
2023-04-07T20:46:12.712Z,20.93
2023-04-07T20:48:41.971Z,20.89
2023-04-07T20:51:10.221Z,20.85
2023-04-07T20:53:40.951Z,20.79
2023-04-07T20:56:10.841Z,20.74
2023-04-07T20:58:39.086Z,20.69
2023-04-07T21:01:07.244Z,20.63
2023-04-07T21:03:36.676Z,20.56
2023-04-07T21:06:06.211Z,20.50
2023-04-07T21:08:35.319Z,20.44
2023-04-07T21:11:03.359Z,20.38
2023-04-07T21:13:31.834Z,20.33
2023-04-07T21:16:03.319Z,20.27
2023-04-07T21:18:33.448Z,20.21
2023-04-07T21:21:04.449Z,20.15
2023-04-07T21:23:32.784Z,20.09
2023-04-07T21:26:02.284Z,20.04
2023-04-07T21:28:35.474Z,19.99
2023-04-07T21:31:04.605Z,19.92
2023-04-07T21:33:33.078Z,19.87
2023-04-07T21:36:01.941Z,19.76
2023-04-07T21:38:31.294Z,19.66
2023-04-07T21:41:00.047Z,19.58
2023-04-07T21:43:29.132Z,19.49
2023-04-07T21:45:57.517Z,19.37
2023-04-07T21:48:25.797Z,19.31
2023-04-07T21:50:54.054Z,19.26
2023-04-07T21:53:22.473Z,19.20
2023-04-07T21:55:50.586Z,19.18
2023-04-07T21:58:18.854Z,19.14
2023-04-07T22:00:47.810Z,19.08
2023-04-07T22:03:17.053Z,19.03
2023-04-07T22:05:46.382Z,18.98
2023-04-07T22:08:14.890Z,18.96
2023-04-07T22:10:43.034Z,18.95
2023-04-07T22:13:11.108Z,18.94
2023-04-07T22:15:41.874Z,18.91
2023-04-07T22:18:10.539Z,18.84
2023-04-07T22:20:41.991Z,18.77
2023-04-07T22:23:10.445Z,18.74
2023-04-07T22:25:39.196Z,18.74
2023-04-07T22:28:07.355Z,18.77
2023-04-07T22:30:35.465Z,18.80
2023-04-07T22:33:05.293Z,18.83
2023-04-07T22:35:33.823Z,18.86
2023-04-07T22:38:03.948Z,18.88
2023-04-07T22:40:32.311Z,18.91
2023-04-07T22:43:01.466Z,18.93
2023-04-07T22:45:31.635Z,18.95
2023-04-07T22:47:59.975Z,18.98
2023-04-07T22:50:33.842Z,18.98
2023-04-07T22:53:01.918Z,19.00
2023-04-07T22:55:30.424Z,19.00
2023-04-07T22:57:58.621Z,18.99
2023-04-07T23:00:26.785Z,19.00
2023-04-07T23:02:55.914Z,19.01
2023-04-07T23:05:24.680Z,19.03
2023-04-07T23:07:53.632Z,19.04
2023-04-07T23:10:24.456Z,19.07
2023-04-07T23:12:54.958Z,19.09
2023-04-07T23:15:23.419Z,19.09
2023-04-07T23:17:56.945Z,19.08
2023-04-07T23:20:26.170Z,19.08
2023-04-07T23:22:59.657Z,19.09
2023-04-07T23:25:28.226Z,19.09
2023-04-07T23:27:56.665Z,19.10
2023-04-07T23:30:24.923Z,19.11
2023-04-07T23:32:54.381Z,19.11
2023-04-07T23:35:22.580Z,19.09
2023-04-07T23:37:51.835Z,19.09
2023-04-07T23:40:20.066Z,19.07
2023-04-07T23:42:48.189Z,19.06
2023-04-07T23:45:17.320Z,19.08
2023-04-07T23:47:47.723Z,19.09
2023-04-07T23:50:16.426Z,19.09
2023-04-07T23:52:44.469Z,19.08
2023-04-07T23:55:14.948Z,19.08
2023-04-07T23:57:43.390Z,19.08
